createdAt,value
2018-07-12T00:02:04.826Z,18.10
2018-07-12T00:04:31.134Z,18.00
2018-07-12T00:06:57.476Z,18.00
2018-07-12T00:09:24.061Z,18.00
2018-07-12T00:11:50.399Z,17.90
2018-07-12T00:16:43.768Z,17.90
2018-07-12T00:19:10.110Z,17.80
2018-07-12T00:21:36.665Z,17.80
2018-07-12T00:24:02.969Z,17.80
2018-07-12T00:26:29.368Z,17.80
2018-07-12T00:28:55.863Z,17.70
2018-07-12T00:31:23.639Z,17.70
2018-07-12T00:36:37.212Z,17.70
2018-07-12T00:39:07.892Z,17.60
2018-07-12T00:41:43.622Z,17.60
2018-07-12T00:44:10.497Z,17.60
2018-07-12T00:46:36.825Z,17.50
2018-07-12T00:49:03.400Z,17.50
2018-07-12T00:51:29.793Z,17.50
2018-07-12T00:53:56.080Z,17.50
2018-07-12T00:56:22.839Z,17.40
2018-07-12T00:58:49.195Z,17.40
2018-07-12T01:03:42.844Z,17.40
2018-07-12T01:06:09.148Z,17.40
2018-07-12T01:08:35.444Z,17.30
2018-07-12T01:11:01.986Z,17.30
2018-07-12T01:13:28.294Z,17.30
2018-07-12T01:15:55.000Z,17.30
2018-07-12T01:18:21.341Z,17.30
2018-07-12T01:20:47.652Z,17.20
2018-07-12T01:25:40.899Z,17.20
2018-07-12T01:28:07.197Z,17.20
2018-07-12T01:30:33.714Z,17.10
2018-07-12T01:35:27.012Z,17.10
2018-07-12T01:37:53.607Z,17.10
2018-07-12T01:40:19.896Z,17.00
2018-07-12T01:42:46.198Z,17.10
2018-07-12T01:45:13.613Z,17.00
2018-07-12T01:47:39.947Z,17.00
2018-07-12T01:50:06.271Z,17.00
2018-07-12T01:52:32.623Z,17.00
2018-07-12T01:54:58.899Z,17.00
2018-07-12T01:57:25.234Z,16.90
2018-07-12T01:59:51.871Z,16.90
2018-07-12T02:02:33.500Z,16.90
2018-07-12T02:07:34.429Z,16.80
2018-07-12T02:10:08.257Z,16.80
2018-07-12T02:12:35.655Z,16.80
2018-07-12T02:15:09.795Z,16.70
2018-07-12T02:17:36.083Z,16.70
2018-07-12T02:20:10.747Z,16.60
2018-07-12T02:22:37.061Z,16.60
2018-07-12T02:25:03.361Z,16.60
2018-07-12T02:27:30.086Z,16.50
2018-07-12T02:29:56.412Z,16.50
2018-07-12T02:32:22.716Z,16.50
2018-07-12T02:34:49.291Z,16.50
2018-07-12T02:37:15.612Z,16.50
2018-07-12T02:39:41.932Z,16.50
2018-07-12T02:42:08.568Z,16.50
2018-07-12T02:47:01.685Z,16.50
2018-07-12T02:49:28.142Z,16.50
2018-07-12T02:51:54.444Z,16.50
2018-07-12T02:54:20.759Z,16.50
2018-07-12T02:56:47.435Z,16.50
2018-07-12T02:59:13.732Z,16.50
2018-07-12T03:01:40.036Z,16.50
2018-07-12T03:04:06.651Z,16.50
2018-07-12T03:08:59.836Z,16.50
2018-07-12T03:11:26.163Z,16.60
2018-07-12T03:13:53.308Z,16.60
2018-07-12T03:16:19.608Z,16.60
2018-07-12T03:18:46.734Z,16.60
2018-07-12T03:21:13.017Z,16.60
2018-07-12T03:26:06.480Z,16.70
2018-07-12T03:30:59.585Z,16.70
2018-07-12T03:33:26.079Z,16.70
2018-07-12T03:35:52.374Z,16.80
2018-07-12T03:40:45.757Z,16.80
2018-07-12T03:45:38.825Z,16.90
2018-07-12T03:50:32.817Z,16.90
2018-07-12T03:52:59.168Z,16.90
2018-07-12T03:55:25.482Z,16.90
2018-07-12T03:57:52.241Z,17.00
2018-07-12T04:02:45.507Z,17.00
2018-07-12T04:05:11.807Z,17.10
2018-07-12T04:07:38.127Z,17.10
2018-07-12T04:12:31.240Z,17.10
2018-07-12T04:14:59.300Z,17.20
2018-07-12T04:17:29.982Z,17.20
2018-07-12T04:19:57.606Z,17.20
2018-07-12T04:22:24.243Z,17.30
2018-07-12T04:24:50.612Z,17.30
2018-07-12T04:27:17.716Z,17.30
2018-07-12T04:29:44.015Z,17.30
2018-07-12T04:32:10.570Z,17.30
2018-07-12T04:34:36.905Z,17.30
2018-07-12T04:37:03.187Z,17.30
2018-07-12T04:39:29.899Z,17.30
2018-07-12T04:41:56.195Z,17.30
2018-07-12T04:44:22.808Z,17.40
2018-07-12T04:46:49.408Z,17.40
2018-07-12T04:49:15.737Z,17.40
2018-07-12T04:51:42.099Z,17.40
2018-07-12T04:54:08.525Z,17.50
2018-07-12T04:56:34.889Z,17.50
2018-07-12T05:01:28.263Z,17.60
2018-07-12T05:06:21.420Z,17.70
2018-07-12T05:08:48.109Z,17.70
2018-07-12T05:13:41.299Z,17.90
2018-07-12T05:18:34.664Z,18.00
2018-07-12T05:21:01.007Z,18.00
2018-07-12T05:23:27.683Z,18.10
2018-07-12T05:28:20.762Z,18.20
2018-07-12T05:33:22.749Z,18.30
2018-07-12T05:35:50.671Z,18.40
2018-07-12T05:38:18.207Z,18.50
2018-07-12T05:41:08.089Z,18.50
2018-07-12T05:43:35.639Z,18.60
2018-07-12T05:46:18.395Z,18.70
2018-07-12T05:48:45.921Z,18.70
2018-07-12T05:51:18.152Z,18.70
2018-07-12T05:53:46.301Z,18.70
2018-07-12T05:58:54.045Z,18.80
2018-07-12T06:01:39.613Z,18.80
2018-07-12T06:06:35.005Z,18.80
2018-07-12T06:11:32.093Z,18.80
2018-07-12T06:18:55.783Z,18.90
2018-07-12T06:21:23.296Z,18.90
2018-07-12T06:23:50.889Z,18.90
2018-07-12T06:26:18.840Z,18.90
2018-07-12T06:28:46.605Z,18.90
2018-07-12T06:31:14.316Z,18.90
2018-07-12T06:33:41.876Z,18.90
2018-07-12T06:36:09.675Z,18.90
2018-07-12T06:43:32.796Z,18.80
2018-07-12T06:48:28.056Z,18.80
2018-07-12T06:50:56.072Z,18.80
2018-07-12T06:53:23.883Z,18.80
2018-07-12T06:55:51.776Z,18.80
2018-07-12T06:58:19.599Z,18.80
2018-07-12T07:00:47.147Z,18.70
2018-07-12T07:03:14.781Z,18.70
2018-07-12T07:05:42.841Z,18.70
2018-07-12T07:08:10.467Z,18.60
2018-07-12T07:10:38.067Z,18.50
2018-07-12T07:13:05.945Z,18.50
2018-07-12T07:15:33.575Z,18.40
2018-07-12T07:18:01.204Z,18.30
2018-07-12T07:20:29.368Z,18.30
2018-07-12T07:22:57.026Z,18.30
2018-07-12T07:25:24.639Z,18.20
2018-07-12T07:27:52.936Z,18.20
2018-07-12T07:30:20.603Z,18.20
2018-07-12T07:32:48.241Z,18.10
2018-07-12T07:35:16.014Z,18.10
2018-07-12T07:37:43.623Z,18.10
2018-07-12T07:42:39.168Z,18.00
2018-07-12T07:47:35.047Z,17.90
2018-07-12T07:50:06.985Z,17.80
2018-07-12T07:52:34.645Z,17.70
2018-07-12T07:55:02.312Z,17.70
2018-07-12T07:57:30.193Z,17.60
2018-07-12T07:59:57.790Z,17.60
2018-07-12T08:02:25.790Z,17.50
2018-07-12T08:04:53.612Z,17.50
2018-07-12T08:07:21.210Z,17.40
2018-07-12T08:09:48.797Z,17.40
2018-07-12T08:14:44.289Z,17.30
2018-07-12T08:17:11.959Z,17.30
2018-07-12T08:19:40.120Z,17.30
2018-07-12T08:22:08.863Z,17.20
2018-07-12T08:24:36.522Z,17.20
2018-07-12T08:27:04.961Z,17.20
2018-07-12T08:29:34.012Z,17.20
2018-07-12T08:32:03.109Z,17.20
2018-07-12T08:34:31.452Z,17.20
2018-07-12T08:36:59.101Z,17.20
2018-07-12T08:44:22.379Z,17.20
2018-07-12T08:46:50.797Z,17.30
2018-07-12T08:49:18.630Z,17.30
2018-07-12T08:51:46.720Z,17.30
2018-07-12T08:54:14.787Z,17.30
2018-07-12T08:56:43.132Z,17.30
2018-07-12T08:59:10.793Z,17.30
2018-07-12T09:01:38.448Z,17.40
2018-07-12T09:04:06.647Z,17.40
2018-07-12T09:06:34.321Z,17.40
2018-07-12T09:09:01.948Z,17.40
2018-07-12T09:13:57.544Z,17.50
2018-07-12T09:16:25.174Z,17.50
2018-07-12T09:18:53.056Z,17.50
2018-07-12T09:21:20.640Z,17.50
2018-07-12T09:23:48.234Z,17.50
2018-07-12T09:26:16.054Z,17.50
2018-07-12T09:28:43.872Z,17.50
2018-07-12T09:31:12.240Z,17.50
2018-07-12T09:33:39.847Z,17.50
2018-07-12T09:36:07.721Z,17.60
2018-07-12T09:41:16.718Z,17.60
2018-07-12T09:43:45.072Z,17.60
2018-07-12T09:46:13.052Z,17.60
2018-07-12T09:48:42.231Z,17.60
2018-07-12T09:53:43.042Z,17.50
2018-07-12T09:56:10.717Z,17.50
2018-07-12T09:58:38.635Z,17.40
2018-07-12T10:01:12.047Z,17.40
2018-07-12T10:03:45.487Z,17.40
2018-07-12T10:06:18.884Z,17.30
2018-07-12T10:08:52.376Z,17.30
2018-07-12T10:11:26.796Z,17.20
2018-07-12T10:14:04.936Z,17.10
2018-07-12T10:16:38.372Z,17.10
2018-07-12T10:19:06.005Z,17.00
2018-07-12T10:24:01.832Z,17.00
2018-07-12T10:28:57.215Z,17.00
2018-07-12T10:31:25.636Z,16.90
2018-07-12T10:33:53.251Z,16.90
2018-07-12T10:38:48.792Z,17.00
2018-07-12T10:41:16.421Z,16.90
2018-07-12T10:43:44.046Z,17.00
2018-07-12T10:46:12.453Z,17.00
2018-07-12T10:48:40.060Z,17.00
2018-07-12T10:53:38.792Z,17.00
2018-07-12T10:56:06.451Z,17.00
2018-07-12T11:01:01.912Z,17.00
2018-07-12T11:03:29.572Z,17.00
2018-07-12T11:05:57.183Z,17.00
2018-07-12T11:08:25.358Z,17.00
2018-07-12T11:10:52.976Z,17.10
2018-07-12T11:13:38.876Z,17.10
2018-07-12T11:16:06.465Z,17.10
2018-07-12T11:18:34.088Z,17.20
2018-07-12T11:23:29.579Z,17.20
2018-07-12T11:25:57.327Z,17.30
2018-07-12T11:28:25.267Z,17.30
2018-07-12T11:30:52.888Z,17.40
2018-07-12T11:33:44.887Z,17.40
2018-07-12T11:36:12.619Z,17.50
2018-07-12T11:41:10.024Z,17.60
2018-07-12T11:43:37.706Z,17.70
2018-07-12T11:46:06.423Z,17.80
2018-07-12T11:48:35.373Z,17.80
2018-07-12T11:51:03.314Z,17.90
2018-07-12T11:53:30.927Z,17.90
2018-07-12T11:55:58.887Z,18.00
2018-07-12T11:58:26.531Z,18.10
2018-07-12T12:03:23.374Z,18.20
2018-07-12T12:05:50.979Z,18.20
2018-07-12T12:08:18.434Z,18.30
2018-07-12T12:10:46.327Z,18.30
2018-07-12T12:13:14.392Z,18.30
2018-07-12T12:15:42.304Z,18.40
2018-07-12T12:18:10.345Z,18.40
2018-07-12T12:20:37.951Z,18.40
2018-07-12T12:23:06.131Z,18.50
2018-07-12T12:25:33.960Z,18.50
2018-07-12T12:28:06.767Z,18.60
2018-07-12T12:30:35.037Z,18.70
2018-07-12T12:33:12.579Z,18.80
2018-07-12T12:35:40.599Z,18.90
2018-07-12T12:38:11.092Z,18.90
2018-07-12T12:40:38.785Z,19.10
2018-07-12T12:45:35.647Z,19.20
2018-07-12T12:50:31.221Z,19.40
2018-07-12T12:52:58.875Z,19.40
2018-07-12T12:55:26.499Z,19.40
2018-07-12T12:57:54.335Z,19.50
2018-07-12T13:00:21.910Z,19.50
2018-07-12T13:02:49.541Z,19.50
2018-07-12T13:05:17.453Z,19.50
2018-07-12T13:07:45.102Z,19.50
2018-07-12T13:10:12.735Z,19.50
2018-07-12T13:12:40.342Z,19.50
2018-07-12T13:15:07.958Z,19.60
2018-07-12T13:20:03.805Z,19.60
2018-07-12T13:24:59.360Z,19.60
2018-07-12T13:29:54.682Z,19.60
2018-07-12T13:32:22.336Z,19.60
2018-07-12T13:37:18.956Z,19.60
2018-07-12T13:39:46.746Z,19.70
2018-07-12T13:42:14.370Z,19.70
2018-07-12T13:44:42.091Z,19.70
2018-07-12T13:47:10.052Z,19.70
2018-07-12T13:49:37.812Z,19.70
2018-07-12T13:52:05.446Z,19.80
2018-07-12T13:54:33.117Z,19.80
2018-07-12T13:57:03.269Z,19.80
2018-07-12T13:59:30.859Z,19.90
2018-07-12T14:01:58.768Z,19.90
2018-07-12T14:04:26.529Z,20.00
2018-07-12T14:06:54.202Z,20.00
2018-07-12T14:11:50.139Z,20.10
2018-07-12T14:14:17.787Z,20.20
2018-07-12T14:16:45.603Z,20.20
2018-07-12T14:19:13.195Z,20.30
2018-07-12T14:21:40.809Z,20.30
2018-07-12T14:24:08.709Z,20.30
2018-07-12T14:26:36.356Z,20.40
2018-07-12T14:29:04.023Z,20.40
2018-07-12T14:33:59.640Z,20.50
2018-07-12T14:38:55.084Z,20.70
2018-07-12T14:41:23.089Z,20.80
2018-07-12T14:43:50.735Z,20.80
2018-07-12T14:46:18.371Z,20.90
2018-07-12T14:48:46.056Z,21.00
2018-07-12T14:51:13.639Z,21.00
2018-07-12T14:53:41.273Z,21.10
2018-07-12T14:56:09.010Z,21.20
2018-07-12T14:58:39.767Z,21.30
2018-07-12T15:03:35.564Z,21.50
2018-07-12T15:06:03.456Z,21.60
2018-07-12T15:08:31.140Z,21.70
2018-07-12T15:10:59.139Z,21.70
2018-07-12T15:13:26.780Z,21.80
2018-07-12T15:15:54.363Z,21.80
2018-07-12T15:18:22.356Z,21.90
2018-07-12T15:20:50.013Z,21.90
2018-07-12T15:23:17.725Z,22.00
2018-07-12T15:25:45.620Z,22.10
2018-07-12T15:28:13.253Z,22.10
2018-07-12T15:33:09.624Z,22.20
2018-07-12T15:35:37.342Z,22.20
2018-07-12T15:38:05.179Z,22.20
2018-07-12T15:40:37.081Z,22.30
2018-07-12T15:43:04.797Z,22.30
2018-07-12T15:45:32.463Z,22.30
2018-07-12T15:48:00.656Z,22.30
2018-07-12T15:50:28.274Z,22.30
2018-07-12T15:52:55.953Z,22.30
2018-07-12T15:55:23.539Z,22.30
2018-07-12T15:57:51.227Z,22.40
2018-07-12T16:00:19.414Z,22.30
2018-07-12T16:02:47.802Z,22.30
2018-07-12T16:05:15.460Z,22.30
2018-07-12T16:07:44.482Z,22.30
2018-07-12T16:10:12.165Z,22.30
2018-07-12T16:15:07.578Z,22.30
2018-07-12T16:17:35.349Z,22.30
2018-07-12T16:20:03.327Z,22.30
2018-07-12T16:22:31.014Z,22.20
2018-07-12T16:24:59.221Z,22.20
2018-07-12T16:27:26.851Z,22.20
2018-07-12T16:29:54.601Z,22.30
2018-07-12T16:34:50.347Z,22.30
2018-07-12T16:37:17.981Z,22.30
2018-07-12T16:39:46.176Z,22.40
2018-07-12T16:42:13.825Z,22.30
2018-07-12T16:44:41.488Z,22.40
2018-07-12T16:47:09.450Z,22.40
2018-07-12T16:49:37.096Z,22.40
2018-07-12T16:52:04.742Z,22.50
2018-07-12T16:54:32.722Z,22.50
2018-07-12T16:57:00.429Z,22.50
2018-07-12T16:59:28.260Z,22.60
2018-07-12T17:01:55.903Z,22.60
2018-07-12T17:04:23.499Z,22.60
2018-07-12T17:06:51.159Z,22.60
2018-07-12T17:09:18.948Z,22.60
2018-07-12T17:11:46.632Z,22.60
2018-07-12T17:14:14.657Z,22.60
2018-07-12T17:16:42.372Z,22.70
2018-07-12T17:19:10.060Z,22.70
2018-07-12T17:24:05.844Z,22.70
2018-07-12T17:26:33.504Z,22.70
2018-07-12T17:29:01.309Z,22.60
2018-07-12T17:31:28.898Z,22.60
2018-07-12T17:33:56.492Z,22.60
2018-07-12T17:36:24.228Z,22.60
2018-07-12T17:38:51.904Z,22.60
2018-07-12T17:41:19.568Z,22.60
2018-07-12T17:46:16.300Z,22.60
2018-07-12T17:48:43.923Z,22.60
2018-07-12T17:51:11.648Z,22.60
2018-07-12T17:53:39.504Z,22.60
2018-07-12T17:56:07.164Z,22.60
2018-07-12T17:58:34.845Z,22.60
2018-07-12T18:01:02.521Z,22.60
2018-07-12T18:03:30.203Z,22.60
2018-07-12T18:08:25.593Z,22.60
2018-07-12T18:10:53.180Z,22.60
2018-07-12T18:13:21.321Z,22.60
2018-07-12T18:15:49.161Z,22.50
2018-07-12T18:18:17.404Z,22.50
2018-07-12T18:20:46.407Z,22.50
2018-07-12T18:23:14.050Z,22.50
2018-07-12T18:25:46.304Z,22.40
2018-07-12T18:28:14.047Z,22.30
2018-07-12T18:30:41.662Z,22.30
2018-07-12T18:33:09.847Z,22.30
2018-07-12T18:35:37.542Z,22.20
2018-07-12T18:38:05.139Z,22.20
2018-07-12T18:40:32.826Z,22.20
2018-07-12T18:43:00.536Z,22.10
2018-07-12T18:45:28.204Z,22.10
2018-07-12T18:47:56.150Z,22.10
2018-07-12T18:50:23.878Z,22.10
2018-07-12T18:55:19.592Z,22.00
2018-07-12T18:57:47.253Z,22.00
2018-07-12T19:00:14.896Z,22.00
2018-07-12T19:02:43.226Z,22.00
2018-07-12T19:05:11.726Z,22.00
2018-07-12T19:10:07.470Z,22.00
2018-07-12T19:12:35.176Z,21.90
2018-07-12T19:15:02.817Z,21.90
2018-07-12T19:17:30.953Z,21.90
2018-07-12T19:19:58.671Z,21.90
2018-07-12T19:22:25.938Z,21.90
2018-07-12T19:24:54.041Z,21.90
2018-07-12T19:27:21.664Z,21.90
2018-07-12T19:29:49.298Z,21.90
2018-07-12T19:32:17.229Z,21.90
2018-07-12T19:34:45.075Z,21.90
2018-07-12T19:37:12.618Z,21.90
2018-07-12T19:39:40.283Z,21.90
2018-07-12T19:42:07.923Z,22.00
2018-07-12T19:44:35.702Z,22.00
2018-07-12T19:47:03.413Z,22.00
2018-07-12T19:49:31.076Z,22.00
2018-07-12T19:54:28.264Z,22.00
2018-07-12T19:59:24.624Z,22.00
2018-07-12T20:01:52.329Z,22.00
2018-07-12T20:04:19.956Z,22.00
2018-07-12T20:06:47.936Z,22.00
2018-07-12T20:09:15.944Z,22.00
2018-07-12T20:11:43.587Z,22.00
2018-07-12T20:14:11.548Z,22.00
2018-07-12T20:16:39.311Z,22.00
2018-07-12T20:21:36.198Z,22.00
2018-07-12T20:24:03.901Z,22.00
2018-07-12T20:26:31.603Z,22.00
2018-07-12T20:31:27.108Z,22.00
2018-07-12T20:33:54.801Z,22.00
2018-07-12T20:36:25.342Z,22.00
2018-07-12T20:38:58.907Z,22.00
2018-07-12T20:41:26.895Z,22.00
2018-07-12T20:43:54.536Z,22.00
2018-07-12T20:46:22.160Z,22.00
2018-07-12T20:51:17.700Z,22.00
2018-07-12T20:53:45.321Z,22.00
2018-07-12T20:56:12.931Z,22.00
2018-07-12T20:58:40.916Z,22.00
2018-07-12T21:01:08.549Z,22.00
2018-07-12T21:03:36.221Z,22.00
2018-07-12T21:06:04.143Z,22.00
2018-07-12T21:08:31.804Z,21.90
2018-07-12T21:11:04.018Z,22.00
2018-07-12T21:13:31.900Z,21.90
2018-07-12T21:15:59.501Z,21.90
2018-07-12T21:18:27.382Z,21.90
2018-07-12T21:20:55.048Z,21.90
2018-07-12T21:23:22.482Z,21.90
2018-07-12T21:28:17.892Z,21.90
2018-07-12T21:30:45.499Z,21.90
2018-07-12T21:33:13.354Z,21.90
2018-07-12T21:35:40.908Z,21.90
2018-07-12T21:38:08.501Z,21.90
2018-07-12T21:40:36.571Z,21.90
2018-07-12T21:43:04.459Z,21.80
2018-07-12T21:45:32.120Z,21.80
2018-07-12T21:50:27.870Z,21.80
2018-07-12T21:52:55.463Z,21.80
2018-07-12T21:55:23.098Z,21.80
2018-07-12T21:57:50.874Z,21.80
2018-07-12T22:00:18.551Z,21.80
2018-07-12T22:05:14.032Z,21.80
2018-07-12T22:08:21.747Z,21.80
2018-07-12T22:13:20.960Z,21.70
2018-07-12T22:15:49.082Z,21.70
2018-07-12T22:18:16.764Z,21.70
2018-07-12T22:20:44.439Z,21.70
2018-07-12T22:23:12.338Z,21.70
2018-07-12T22:30:35.908Z,21.70
2018-07-12T22:33:03.991Z,21.70
2018-07-12T22:35:31.591Z,21.70
2018-07-12T22:40:28.447Z,21.70
2018-07-12T22:42:56.231Z,21.70
2018-07-12T22:45:24.542Z,21.70
2018-07-12T22:47:52.173Z,21.70
2018-07-12T22:50:19.824Z,21.70
2018-07-12T22:52:47.937Z,21.70
2018-07-12T22:57:44.073Z,21.60
2018-07-12T23:00:11.816Z,21.60
2018-07-12T23:02:39.592Z,21.60
2018-07-12T23:05:07.292Z,21.60
2018-07-12T23:07:35.135Z,21.50
2018-07-12T23:10:02.816Z,21.50
2018-07-12T23:12:30.427Z,21.50
2018-07-12T23:14:58.294Z,21.50
2018-07-12T23:17:25.908Z,21.50
2018-07-12T23:19:53.528Z,21.40
2018-07-12T23:22:22.048Z,21.40
2018-07-12T23:24:49.768Z,21.40
2018-07-12T23:27:17.500Z,21.40
2018-07-12T23:29:45.864Z,21.40
2018-07-12T23:32:13.565Z,21.40
2018-07-12T23:34:41.633Z,21.30
2018-07-12T23:37:09.540Z,21.30
2018-07-12T23:39:37.455Z,21.30
2018-07-12T23:42:05.184Z,21.30
2018-07-12T23:44:32.977Z,21.30
2018-07-12T23:47:00.616Z,21.30
2018-07-12T23:49:28.615Z,21.20
2018-07-12T23:51:56.406Z,21.20
2018-07-12T23:54:24.083Z,21.10
2018-07-12T23:56:52.325Z,21.10
2018-07-12T23:59:19.997Z,21.10
